sensor_id;sensor_type;location;lat;lon;timestamp;P1;durP1;ratioP1;P2;durP2;ratioP2
62584;SDS011;48643;51.670;5.808;2023-09-12T00:01:20;12.43;;;7.40;;
62584;SDS011;48643;51.670;5.808;2023-09-12T00:03:47;10.80;;;7.38;;
62584;SDS011;48643;51.670;5.808;2023-09-12T00:06:14;9.45;;;6.57;;
62584;SDS011;48643;51.670;5.808;2023-09-12T00:08:40;10.43;;;7.07;;
62584;SDS011;48643;51.670;5.808;2023-09-12T00:11:09;12.35;;;7.50;;
62584;SDS011;48643;51.670;5.808;2023-09-12T00:13:40;10.00;;;7.20;;
62584;SDS011;48643;51.670;5.808;2023-09-12T00:16:08;10.75;;;7.53;;
62584;SDS011;48643;51.670;5.808;2023-09-12T00:18:37;12.20;;;7.90;;
62584;SDS011;48643;51.670;5.808;2023-09-12T00:21:04;10.13;;;7.22;;
62584;SDS011;48643;51.670;5.808;2023-09-12T00:23:31;11.98;;;7.93;;
62584;SDS011;48643;51.670;5.808;2023-09-12T00:25:58;14.57;;;7.60;;
62584;SDS011;48643;51.670;5.808;2023-09-12T00:28:25;10.82;;;7.65;;
62584;SDS011;48643;51.670;5.808;2023-09-12T00:30:52;10.52;;;7.05;;
62584;SDS011;48643;51.670;5.808;2023-09-12T00:33:19;12.68;;;7.57;;
62584;SDS011;48643;51.670;5.808;2023-09-12T00:35:46;10.10;;;7.43;;
62584;SDS011;48643;51.670;5.808;2023-09-12T00:38:13;11.35;;;7.72;;
62584;SDS011;48643;51.670;5.808;2023-09-12T00:40:39;11.23;;;7.65;;
62584;SDS011;48643;51.670;5.808;2023-09-12T00:43:06;10.77;;;7.80;;
62584;SDS011;48643;51.670;5.808;2023-09-12T00:45:34;11.05;;;7.38;;
62584;SDS011;48643;51.670;5.808;2023-09-12T00:48:01;11.77;;;7.35;;
62584;SDS011;48643;51.670;5.808;2023-09-12T00:50:30;14.75;;;7.93;;
62584;SDS011;48643;51.670;5.808;2023-09-12T00:52:58;14.70;;;8.27;;
62584;SDS011;48643;51.670;5.808;2023-09-12T00:55:26;11.13;;;7.65;;
62584;SDS011;48643;51.670;5.808;2023-09-12T00:57:54;11.88;;;7.80;;
62584;SDS011;48643;51.670;5.808;2023-09-12T01:00:21;27.20;;;16.10;;
62584;SDS011;48643;51.670;5.808;2023-09-12T01:02:48;23.23;;;12.77;;
62584;SDS011;48643;51.670;5.808;2023-09-12T01:05:20;20.98;;;11.75;;
62584;SDS011;48643;51.670;5.808;2023-09-12T01:07:48;16.88;;;10.48;;
62584;SDS011;48643;51.670;5.808;2023-09-12T01:10:15;20.38;;;10.77;;
62584;SDS011;48643;51.670;5.808;2023-09-12T01:12:42;21.73;;;10.10;;
62584;SDS011;48643;51.670;5.808;2023-09-12T01:15:09;20.27;;;10.55;;
62584;SDS011;48643;51.670;5.808;2023-09-12T01:17:42;18.40;;;10.20;;
62584;SDS011;48643;51.670;5.808;2023-09-12T01:20:28;20.83;;;9.80;;
62584;SDS011;48643;51.670;5.808;2023-09-12T01:28:22;14.98;;;9.05;;
62584;SDS011;48643;51.670;5.808;2023-09-12T01:30:51;18.98;;;9.00;;
62584;SDS011;48643;51.670;5.808;2023-09-12T01:33:18;11.82;;;8.73;;
62584;SDS011;48643;51.670;5.808;2023-09-12T01:35:46;12.80;;;8.45;;
62584;SDS011;48643;51.670;5.808;2023-09-12T01:38:13;12.52;;;8.43;;
62584;SDS011;48643;51.670;5.808;2023-09-12T01:40:43;11.45;;;8.15;;
62584;SDS011;48643;51.670;5.808;2023-09-12T01:43:18;18.33;;;8.40;;
62584;SDS011;48643;51.670;5.808;2023-09-12T01:45:48;12.45;;;7.88;;
62584;SDS011;48643;51.670;5.808;2023-09-12T01:48:19;12.85;;;7.80;;
62584;SDS011;48643;51.670;5.808;2023-09-12T01:50:48;10.23;;;7.43;;
62584;SDS011;48643;51.670;5.808;2023-09-12T01:53:15;12.50;;;7.55;;
62584;SDS011;48643;51.670;5.808;2023-09-12T01:55:42;10.40;;;6.85;;
62584;SDS011;48643;51.670;5.808;2023-09-12T01:58:11;12.20;;;6.82;;
62584;SDS011;48643;51.670;5.808;2023-09-12T02:00:39;10.57;;;6.45;;
62584;SDS011;48643;51.670;5.808;2023-09-12T02:03:06;10.15;;;6.47;;
62584;SDS011;48643;51.670;5.808;2023-09-12T02:05:34;10.57;;;6.40;;
62584;SDS011;48643;51.670;5.808;2023-09-12T02:08:01;8.48;;;6.32;;
62584;SDS011;48643;51.670;5.808;2023-09-12T02:10:28;10.07;;;6.47;;
62584;SDS011;48643;51.670;5.808;2023-09-12T02:12:55;9.98;;;6.32;;
62584;SDS011;48643;51.670;5.808;2023-09-12T02:15:21;9.32;;;6.10;;
62584;SDS011;48643;51.670;5.808;2023-09-12T02:17:48;10.57;;;6.38;;
62584;SDS011;48643;51.670;5.808;2023-09-12T02:20:18;10.30;;;6.38;;
62584;SDS011;48643;51.670;5.808;2023-09-12T02:22:45;10.20;;;6.22;;
62584;SDS011;48643;51.670;5.808;2023-09-12T02:25:12;10.98;;;6.50;;
62584;SDS011;48643;51.670;5.808;2023-09-12T02:27:40;11.55;;;6.00;;
62584;SDS011;48643;51.670;5.808;2023-09-12T02:30:07;9.13;;;6.05;;
62584;SDS011;48643;51.670;5.808;2023-09-12T02:32:34;9.88;;;6.30;;
62584;SDS011;48643;51.670;5.808;2023-09-12T02:35:01;10.38;;;5.78;;
62584;SDS011;48643;51.670;5.808;2023-09-12T02:37:29;8.95;;;6.40;;
62584;SDS011;48643;51.670;5.808;2023-09-12T02:39:55;9.63;;;6.40;;
62584;SDS011;48643;51.670;5.808;2023-09-12T02:42:22;9.25;;;6.32;;
62584;SDS011;48643;51.670;5.808;2023-09-12T02:44:50;12.02;;;6.03;;
62584;SDS011;48643;51.670;5.808;2023-09-12T02:47:18;9.88;;;6.03;;
62584;SDS011;48643;51.670;5.808;2023-09-12T02:49:45;9.57;;;6.00;;
62584;SDS011;48643;51.670;5.808;2023-09-12T02:52:12;9.45;;;6.25;;
62584;SDS011;48643;51.670;5.808;2023-09-12T02:54:39;7.88;;;5.40;;
62584;SDS011;48643;51.670;5.808;2023-09-12T02:57:07;8.00;;;5.78;;
62584;SDS011;48643;51.670;5.808;2023-09-12T02:59:34;9.68;;;5.80;;
62584;SDS011;48643;51.670;5.808;2023-09-12T03:02:02;7.63;;;5.40;;
62584;SDS011;48643;51.670;5.808;2023-09-12T03:04:29;7.68;;;5.13;;
62584;SDS011;48643;51.670;5.808;2023-09-12T03:06:56;8.00;;;5.43;;
62584;SDS011;48643;51.670;5.808;2023-09-12T03:09:23;6.88;;;5.25;;
62584;SDS011;48643;51.670;5.808;2023-09-12T03:11:50;10.43;;;5.50;;
62584;SDS011;48643;51.670;5.808;2023-09-12T03:14:17;8.15;;;5.47;;
62584;SDS011;48643;51.670;5.808;2023-09-12T03:16:44;10.60;;;5.20;;
62584;SDS011;48643;51.670;5.808;2023-09-12T03:19:11;7.70;;;5.60;;
62584;SDS011;48643;51.670;5.808;2023-09-12T03:21:38;10.18;;;5.43;;
62584;SDS011;48643;51.670;5.808;2023-09-12T03:24:06;10.48;;;5.60;;
62584;SDS011;48643;51.670;5.808;2023-09-12T03:26:34;7.00;;;5.22;;
62584;SDS011;48643;51.670;5.808;2023-09-12T03:29:02;7.00;;;5.30;;
62584;SDS011;48643;51.670;5.808;2023-09-12T03:31:30;7.70;;;5.38;;
62584;SDS011;48643;51.670;5.808;2023-09-12T03:33:58;8.43;;;5.67;;
62584;SDS011;48643;51.670;5.808;2023-09-12T03:36:25;11.05;;;6.10;;
62584;SDS011;48643;51.670;5.808;2023-09-12T03:38:52;9.32;;;5.57;;
62584;SDS011;48643;51.670;5.808;2023-09-12T03:41:20;9.63;;;5.47;;
62584;SDS011;48643;51.670;5.808;2023-09-12T03:43:53;11.32;;;6.28;;
62584;SDS011;48643;51.670;5.808;2023-09-12T03:46:21;11.80;;;5.57;;
62584;SDS011;48643;51.670;5.808;2023-09-12T03:48:48;8.90;;;5.93;;
62584;SDS011;48643;51.670;5.808;2023-09-12T03:51:15;9.98;;;6.13;;
62584;SDS011;48643;51.670;5.808;2023-09-12T03:53:42;11.75;;;6.10;;
62584;SDS011;48643;51.670;5.808;2023-09-12T03:56:09;7.47;;;6.05;;
62584;SDS011;48643;51.670;5.808;2023-09-12T03:58:40;8.15;;;5.45;;
62584;SDS011;48643;51.670;5.808;2023-09-12T04:01:07;8.32;;;6.10;;
62584;SDS011;48643;51.670;5.808;2023-09-12T04:03:34;10.77;;;6.00;;
62584;SDS011;48643;51.670;5.808;2023-09-12T04:06:01;10.77;;;6.00;;
62584;SDS011;48643;51.670;5.808;2023-09-12T04:08:29;13.02;;;6.28;;
62584;SDS011;48643;51.670;5.808;2023-09-12T04:10:56;10.23;;;6.18;;
62584;SDS011;48643;51.670;5.808;2023-09-12T04:13:23;9.82;;;6.20;;
62584;SDS011;48643;51.670;5.808;2023-09-12T04:15:50;11.52;;;6.30;;
62584;SDS011;48643;51.670;5.808;2023-09-12T04:18:17;8.93;;;6.43;;
62584;SDS011;48643;51.670;5.808;2023-09-12T04:20:44;8.18;;;5.85;;
62584;SDS011;48643;51.670;5.808;2023-09-12T04:23:10;8.00;;;5.97;;
62584;SDS011;48643;51.670;5.808;2023-09-12T04:25:37;8.60;;;6.15;;
62584;SDS011;48643;51.670;5.808;2023-09-12T04:28:04;11.98;;;6.43;;
62584;SDS011;48643;51.670;5.808;2023-09-12T04:30:31;7.78;;;6.00;;
62584;SDS011;48643;51.670;5.808;2023-09-12T04:32:58;9.95;;;6.20;;
62584;SDS011;48643;51.670;5.808;2023-09-12T04:35:25;8.07;;;6.15;;
62584;SDS011;48643;51.670;5.808;2023-09-12T04:37:52;11.10;;;6.03;;
62584;SDS011;48643;51.670;5.808;2023-09-12T04:40:20;7.90;;;6.13;;
62584;SDS011;48643;51.670;5.808;2023-09-12T04:42:46;10.20;;;5.95;;
62584;SDS011;48643;51.670;5.808;2023-09-12T04:45:13;7.97;;;6.00;;
62584;SDS011;48643;51.670;5.808;2023-09-12T04:47:42;6.72;;;5.50;;
62584;SDS011;48643;51.670;5.808;2023-09-12T04:50:09;11.48;;;5.63;;
62584;SDS011;48643;51.670;5.808;2023-09-12T04:52:38;13.70;;;6.05;;
62584;SDS011;48643;51.670;5.808;2023-09-12T04:55:05;14.88;;;5.90;;
62584;SDS011;48643;51.670;5.808;2023-09-12T04:57:32;6.82;;;5.90;;
62584;SDS011;48643;51.670;5.808;2023-09-12T04:59:59;7.18;;;5.13;;
62584;SDS011;48643;51.670;5.808;2023-09-12T05:02:26;8.45;;;5.43;;
62584;SDS011;48643;51.670;5.808;2023-09-12T05:04:53;8.05;;;5.80;;
62584;SDS011;48643;51.670;5.808;2023-09-12T05:07:21;7.85;;;6.03;;
62584;SDS011;48643;51.670;5.808;2023-09-12T05:09:49;6.82;;;5.70;;
62584;SDS011;48643;51.670;5.808;2023-09-12T05:12:16;6.75;;;5.53;;
62584;SDS011;48643;51.670;5.808;2023-09-12T05:14:43;7.53;;;5.45;;
62584;SDS011;48643;51.670;5.808;2023-09-12T05:17:11;8.13;;;5.63;;
62584;SDS011;48643;51.670;5.808;2023-09-12T05:19:37;7.70;;;5.35;;
62584;SDS011;48643;51.670;5.808;2023-09-12T05:22:04;7.22;;;5.47;;
62584;SDS011;48643;51.670;5.808;2023-09-12T05:24:31;7.35;;;5.20;;
62584;SDS011;48643;51.670;5.808;2023-09-12T05:26:58;8.93;;;5.35;;
62584;SDS011;48643;51.670;5.808;2023-09-12T05:29:25;9.45;;;5.50;;
62584;SDS011;48643;51.670;5.808;2023-09-12T05:31:52;8.63;;;5.32;;
62584;SDS011;48643;51.670;5.808;2023-09-12T05:34:19;6.82;;;5.15;;
62584;SDS011;48643;51.670;5.808;2023-09-12T05:36:46;6.57;;;4.82;;
62584;SDS011;48643;51.670;5.808;2023-09-12T05:39:13;5.82;;;4.88;;
62584;SDS011;48643;51.670;5.808;2023-09-12T05:41:42;8.32;;;5.10;;
62584;SDS011;48643;51.670;5.808;2023-09-12T05:44:09;7.28;;;5.60;;
62584;SDS011;48643;51.670;5.808;2023-09-12T05:46:39;8.60;;;5.43;;
62584;SDS011;48643;51.670;5.808;2023-09-12T05:49:06;7.28;;;5.25;;
62584;SDS011;48643;51.670;5.808;2023-09-12T05:51:32;6.00;;;5.05;;
62584;SDS011;48643;51.670;5.808;2023-09-12T05:53:59;7.32;;;5.38;;
62584;SDS011;48643;51.670;5.808;2023-09-12T05:56:29;7.70;;;5.20;;
62584;SDS011;48643;51.670;5.808;2023-09-12T05:58:56;9.48;;;5.78;;
62584;SDS011;48643;51.670;5.808;2023-09-12T06:01:22;8.85;;;5.45;;
62584;SDS011;48643;51.670;5.808;2023-09-12T06:03:49;8.68;;;5.63;;
62584;SDS011;48643;51.670;5.808;2023-09-12T06:06:16;8.40;;;5.47;;
62584;SDS011;48643;51.670;5.808;2023-09-12T06:08:43;7.65;;;5.95;;
62584;SDS011;48643;51.670;5.808;2023-09-12T06:11:10;9.82;;;5.72;;
62584;SDS011;48643;51.670;5.808;2023-09-12T06:13:37;11.18;;;5.97;;
62584;SDS011;48643;51.670;5.808;2023-09-12T06:16:04;18.00;;;10.55;;
62584;SDS011;48643;51.670;5.808;2023-09-12T06:18:35;25.47;;;18.13;;
62584;SDS011;48643;51.670;5.808;2023-09-12T06:21:03;28.45;;;18.73;;
62584;SDS011;48643;51.670;5.808;2023-09-12T06:23:30;28.88;;;18.70;;
62584;SDS011;48643;51.670;5.808;2023-09-12T06:25:57;31.13;;;19.75;;
62584;SDS011;48643;51.670;5.808;2023-09-12T06:28:25;29.67;;;20.80;;
62584;SDS011;48643;51.670;5.808;2023-09-12T06:30:52;34.13;;;22.25;;
62584;SDS011;48643;51.670;5.808;2023-09-12T06:33:20;37.78;;;22.52;;
62584;SDS011;48643;51.670;5.808;2023-09-12T06:35:50;45.97;;;29.20;;
62584;SDS011;48643;51.670;5.808;2023-09-12T06:38:19;42.15;;;30.83;;
62584;SDS011;48643;51.670;5.808;2023-09-12T06:40:46;32.55;;;22.17;;
62584;SDS011;48643;51.670;5.808;2023-09-12T06:43:13;35.97;;;24.15;;
62584;SDS011;48643;51.670;5.808;2023-09-12T06:45:41;38.30;;;23.38;;
62584;SDS011;48643;51.670;5.808;2023-09-12T06:48:08;33.33;;;23.73;;
62584;SDS011;48643;51.670;5.808;2023-09-12T06:50:35;35.53;;;24.15;;
62584;SDS011;48643;51.670;5.808;2023-09-12T06:53:04;45.60;;;24.35;;
62584;SDS011;48643;51.670;5.808;2023-09-12T06:55:33;46.70;;;28.73;;
62584;SDS011;48643;51.670;5.808;2023-09-12T06:58:00;39.10;;;24.75;;
62584;SDS011;48643;51.670;5.808;2023-09-12T07:00:27;35.28;;;24.48;;
62584;SDS011;48643;51.670;5.808;2023-09-12T07:02:54;40.25;;;24.55;;
62584;SDS011;48643;51.670;5.808;2023-09-12T07:05:21;40.35;;;23.40;;
62584;SDS011;48643;51.670;5.808;2023-09-12T07:07:48;37.13;;;22.88;;
62584;SDS011;48643;51.670;5.808;2023-09-12T07:10:15;35.25;;;23.73;;
62584;SDS011;48643;51.670;5.808;2023-09-12T07:12:54;38.42;;;23.48;;
62584;SDS011;48643;51.670;5.808;2023-09-12T07:15:21;32.97;;;23.35;;
62584;SDS011;48643;51.670;5.808;2023-09-12T07:17:48;34.75;;;23.25;;
62584;SDS011;48643;51.670;5.808;2023-09-12T07:20:15;40.20;;;23.48;;
62584;SDS011;48643;51.670;5.808;2023-09-12T07:25:11;37.50;;;23.55;;
62584;SDS011;48643;51.670;5.808;2023-09-12T07:27:42;35.25;;;23.45;;
62584;SDS011;48643;51.670;5.808;2023-09-12T07:30:10;37.42;;;23.27;;
62584;SDS011;48643;51.670;5.808;2023-09-12T07:32:37;38.53;;;24.23;;
62584;SDS011;48643;51.670;5.808;2023-09-12T07:35:04;39.88;;;23.60;;
62584;SDS011;48643;51.670;5.808;2023-09-12T07:37:31;41.50;;;23.27;;
62584;SDS011;48643;51.670;5.808;2023-09-12T07:39:58;37.40;;;23.38;;
62584;SDS011;48643;51.670;5.808;2023-09-12T07:42:25;38.00;;;23.48;;
62584;SDS011;48643;51.670;5.808;2023-09-12T07:44:51;36.20;;;23.90;;
62584;SDS011;48643;51.670;5.808;2023-09-12T07:47:18;37.03;;;23.63;;
62584;SDS011;48643;51.670;5.808;2023-09-12T07:49:45;35.95;;;23.75;;
62584;SDS011;48643;51.670;5.808;2023-09-12T07:52:18;36.90;;;24.25;;
62584;SDS011;48643;51.670;5.808;2023-09-12T07:54:45;36.00;;;24.60;;
62584;SDS011;48643;51.670;5.808;2023-09-12T07:57:12;38.30;;;24.83;;
62584;SDS011;48643;51.670;5.808;2023-09-12T07:59:39;46.67;;;25.25;;
62584;SDS011;48643;51.670;5.808;2023-09-12T08:02:06;45.40;;;25.40;;
62584;SDS011;48643;51.670;5.808;2023-09-12T08:04:33;41.75;;;26.05;;
62584;SDS011;48643;51.670;5.808;2023-09-12T08:07:00;53.70;;;28.77;;
62584;SDS011;48643;51.670;5.808;2023-09-12T08:09:34;47.40;;;28.05;;
62584;SDS011;48643;51.670;5.808;2023-09-12T08:12:21;45.78;;;27.25;;
62584;SDS011;48643;51.670;5.808;2023-09-12T08:14:49;43.00;;;26.45;;
62584;SDS011;48643;51.670;5.808;2023-09-12T08:17:16;39.50;;;27.13;;
62584;SDS011;48643;51.670;5.808;2023-09-12T08:19:43;43.22;;;28.30;;
62584;SDS011;48643;51.670;5.808;2023-09-12T08:22:10;50.80;;;31.05;;
62584;SDS011;48643;51.670;5.808;2023-09-12T08:24:38;48.88;;;28.92;;
62584;SDS011;48643;51.670;5.808;2023-09-12T08:27:06;44.05;;;26.83;;
62584;SDS011;48643;51.670;5.808;2023-09-12T08:29:33;50.83;;;28.15;;
62584;SDS011;48643;51.670;5.808;2023-09-12T08:32:00;46.30;;;27.67;;
62584;SDS011;48643;51.670;5.808;2023-09-12T08:34:27;43.17;;;25.55;;
62584;SDS011;48643;51.670;5.808;2023-09-12T08:36:54;39.90;;;24.63;;
62584;SDS011;48643;51.670;5.808;2023-09-12T08:39:25;40.67;;;23.80;;
62584;SDS011;48643;51.670;5.808;2023-09-12T08:41:53;37.70;;;23.23;;
62584;SDS011;48643;51.670;5.808;2023-09-12T08:44:20;41.53;;;22.27;;
62584;SDS011;48643;51.670;5.808;2023-09-12T08:46:48;32.85;;;20.05;;
62584;SDS011;48643;51.670;5.808;2023-09-12T08:49:15;29.63;;;17.23;;
62584;SDS011;48643;51.670;5.808;2023-09-12T08:51:42;28.55;;;17.80;;
62584;SDS011;48643;51.670;5.808;2023-09-12T08:54:10;30.00;;;16.73;;
62584;SDS011;48643;51.670;5.808;2023-09-12T08:56:39;29.35;;;16.38;;
62584;SDS011;48643;51.670;5.808;2023-09-12T08:59:08;25.88;;;16.48;;
62584;SDS011;48643;51.670;5.808;2023-09-12T09:01:36;25.40;;;15.75;;
62584;SDS011;48643;51.670;5.808;2023-09-12T09:04:04;29.40;;;17.42;;
62584;SDS011;48643;51.670;5.808;2023-09-12T09:06:31;27.73;;;17.10;;
62584;SDS011;48643;51.670;5.808;2023-09-12T09:09:04;29.02;;;17.42;;
62584;SDS011;48643;51.670;5.808;2023-09-12T09:14:01;26.70;;;17.30;;
62584;SDS011;48643;51.670;5.808;2023-09-12T09:16:29;29.15;;;17.30;;
62584;SDS011;48643;51.670;5.808;2023-09-12T09:19:01;25.70;;;16.08;;
62584;SDS011;48643;51.670;5.808;2023-09-12T09:21:32;26.30;;;16.67;;
62584;SDS011;48643;51.670;5.808;2023-09-12T09:24:07;22.05;;;14.95;;
62584;SDS011;48643;51.670;5.808;2023-09-12T09:26:45;21.45;;;14.45;;
62584;SDS011;48643;51.670;5.808;2023-09-12T09:29:17;22.50;;;13.43;;
62584;SDS011;48643;51.670;5.808;2023-09-12T09:31:46;21.80;;;14.25;;
62584;SDS011;48643;51.670;5.808;2023-09-12T09:34:17;20.10;;;13.40;;
62584;SDS011;48643;51.670;5.808;2023-09-12T09:36:49;20.92;;;12.23;;
62584;SDS011;48643;51.670;5.808;2023-09-12T09:39:19;15.95;;;11.65;;
62584;SDS011;48643;51.670;5.808;2023-09-12T09:41:47;16.95;;;11.60;;
62584;SDS011;48643;51.670;5.808;2023-09-12T09:44:15;17.58;;;10.82;;
62584;SDS011;48643;51.670;5.808;2023-09-12T09:46:42;20.38;;;12.40;;
62584;SDS011;48643;51.670;5.808;2023-09-12T09:49:10;18.73;;;11.02;;
62584;SDS011;48643;51.670;5.808;2023-09-12T09:51:41;18.73;;;11.43;;
62584;SDS011;48643;51.670;5.808;2023-09-12T09:54:11;23.60;;;12.63;;
62584;SDS011;48643;51.670;5.808;2023-09-12T09:56:45;18.48;;;12.35;;
62584;SDS011;48643;51.670;5.808;2023-09-12T09:59:20;19.85;;;12.00;;
62584;SDS011;48643;51.670;5.808;2023-09-12T10:01:49;15.13;;;9.82;;
62584;SDS011;48643;51.670;5.808;2023-09-12T10:04:17;16.90;;;8.82;;
62584;SDS011;48643;51.670;5.808;2023-09-12T10:06:45;15.23;;;9.43;;
62584;SDS011;48643;51.670;5.808;2023-09-12T10:09:13;15.43;;;8.53;;
62584;SDS011;48643;51.670;5.808;2023-09-12T10:11:40;13.13;;;7.38;;
62584;SDS011;48643;51.670;5.808;2023-09-12T10:14:09;13.38;;;9.15;;
62584;SDS011;48643;51.670;5.808;2023-09-12T10:16:48;17.55;;;11.60;;
62584;SDS011;48643;51.670;5.808;2023-09-12T10:22:31;15.02;;;8.70;;
62584;SDS011;48643;51.670;5.808;2023-09-12T10:25:05;14.68;;;9.90;;
62584;SDS011;48643;51.670;5.808;2023-09-12T10:30:01;19.30;;;9.70;;
62584;SDS011;48643;51.670;5.808;2023-09-12T10:32:28;17.75;;;9.65;;
62584;SDS011;48643;51.670;5.808;2023-09-12T10:34:58;15.15;;;8.52;;
62584;SDS011;48643;51.670;5.808;2023-09-12T10:37:25;14.18;;;8.45;;
62584;SDS011;48643;51.670;5.808;2023-09-12T10:39:53;17.63;;;9.30;;
62584;SDS011;48643;51.670;5.808;2023-09-12T10:42:20;12.93;;;8.65;;
62584;SDS011;48643;51.670;5.808;2023-09-12T10:44:47;12.95;;;8.27;;
62584;SDS011;48643;51.670;5.808;2023-09-12T10:47:15;12.25;;;8.70;;
62584;SDS011;48643;51.670;5.808;2023-09-12T10:49:45;20.45;;;9.65;;
62584;SDS011;48643;51.670;5.808;2023-09-12T10:52:23;20.73;;;10.75;;
62584;SDS011;48643;51.670;5.808;2023-09-12T10:54:52;14.73;;;9.95;;
62584;SDS011;48643;51.670;5.808;2023-09-12T10:57:19;17.95;;;11.40;;
62584;SDS011;48643;51.670;5.808;2023-09-12T11:02:30;19.10;;;12.35;;
62584;SDS011;48643;51.670;5.808;2023-09-12T11:05:04;18.30;;;11.73;;
62584;SDS011;48643;51.670;5.808;2023-09-12T11:12:49;18.35;;;11.27;;
62584;SDS011;48643;51.670;5.808;2023-09-12T11:15:17;21.90;;;12.13;;
62584;SDS011;48643;51.670;5.808;2023-09-12T11:17:46;15.70;;;10.63;;
62584;SDS011;48643;51.670;5.808;2023-09-12T11:20:14;14.50;;;5.90;;
62584;SDS011;48643;51.670;5.808;2023-09-12T11:22:42;7.57;;;4.10;;
62584;SDS011;48643;51.670;5.808;2023-09-12T11:25:23;9.05;;;3.85;;
62584;SDS011;48643;51.670;5.808;2023-09-12T11:30:21;5.75;;;3.60;;
62584;SDS011;48643;51.670;5.808;2023-09-12T11:32:50;5.75;;;3.42;;
62584;SDS011;48643;51.670;5.808;2023-09-12T11:35:24;5.93;;;3.50;;
62584;SDS011;48643;51.670;5.808;2023-09-12T11:37:56;5.13;;;3.27;;
62584;SDS011;48643;51.670;5.808;2023-09-12T11:43:00;6.75;;;3.38;;
62584;SDS011;48643;51.670;5.808;2023-09-12T11:45:27;10.00;;;3.75;;
62584;SDS011;48643;51.670;5.808;2023-09-12T11:47:54;3.92;;;3.13;;
62584;SDS011;48643;51.670;5.808;2023-09-12T11:50:31;5.38;;;3.08;;
62584;SDS011;48643;51.670;5.808;2023-09-12T11:55:42;5.38;;;3.10;;
62584;SDS011;48643;51.670;5.808;2023-09-12T11:58:10;4.82;;;3.10;;
62584;SDS011;48643;51.670;5.808;2023-09-12T12:00:42;5.03;;;3.28;;
62584;SDS011;48643;51.670;5.808;2023-09-12T12:03:14;4.50;;;3.15;;
62584;SDS011;48643;51.670;5.808;2023-09-12T12:05:41;4.65;;;3.25;;
62584;SDS011;48643;51.670;5.808;2023-09-12T12:08:09;5.90;;;3.33;;
62584;SDS011;48643;51.670;5.808;2023-09-12T12:10:57;6.05;;;3.30;;
62584;SDS011;48643;51.670;5.808;2023-09-12T12:13:27;5.32;;;2.97;;
62584;SDS011;48643;51.670;5.808;2023-09-12T12:18:22;3.85;;;2.85;;
62584;SDS011;48643;51.670;5.808;2023-09-12T12:20:50;4.25;;;2.97;;
62584;SDS011;48643;51.670;5.808;2023-09-12T12:23:16;5.15;;;3.13;;
62584;SDS011;48643;51.670;5.808;2023-09-12T12:25:43;5.50;;;3.08;;
62584;SDS011;48643;51.670;5.808;2023-09-12T12:28:10;5.18;;;2.95;;
62584;SDS011;48643;51.670;5.808;2023-09-12T12:30:37;6.53;;;3.58;;
62584;SDS011;48643;51.670;5.808;2023-09-12T12:33:09;5.10;;;3.00;;
62584;SDS011;48643;51.670;5.808;2023-09-12T12:36:03;3.97;;;3.00;;
62584;SDS011;48643;51.670;5.808;2023-09-12T12:38:32;6.10;;;3.08;;
62584;SDS011;48643;51.670;5.808;2023-09-12T12:41:02;5.18;;;2.97;;
62584;SDS011;48643;51.670;5.808;2023-09-12T12:43:30;4.28;;;2.95;;
62584;SDS011;48643;51.670;5.808;2023-09-12T12:45:57;5.65;;;3.25;;
62584;SDS011;48643;51.670;5.808;2023-09-12T12:50:59;4.22;;;3.20;;
62584;SDS011;48643;51.670;5.808;2023-09-12T12:53:38;3.88;;;3.00;;
62584;SDS011;48643;51.670;5.808;2023-09-12T12:56:11;3.88;;;2.88;;
62584;SDS011;48643;51.670;5.808;2023-09-12T12:58:44;5.32;;;3.20;;
62584;SDS011;48643;51.670;5.808;2023-09-12T13:01:12;3.83;;;3.03;;
62584;SDS011;48643;51.670;5.808;2023-09-12T13:03:40;3.67;;;2.80;;
62584;SDS011;48643;51.670;5.808;2023-09-12T13:06:08;3.60;;;2.90;;
62584;SDS011;48643;51.670;5.808;2023-09-12T13:08:40;3.47;;;2.88;;
62584;SDS011;48643;51.670;5.808;2023-09-12T13:11:09;4.60;;;3.00;;
62584;SDS011;48643;51.670;5.808;2023-09-12T13:13:37;3.92;;;2.80;;
62584;SDS011;48643;51.670;5.808;2023-09-12T13:16:04;4.90;;;3.08;;
62584;SDS011;48643;51.670;5.808;2023-09-12T13:18:33;4.15;;;2.88;;
62584;SDS011;48643;51.670;5.808;2023-09-12T13:21:00;3.45;;;2.80;;
62584;SDS011;48643;51.670;5.808;2023-09-12T13:23:27;3.97;;;3.13;;
62584;SDS011;48643;51.670;5.808;2023-09-12T13:25:54;3.53;;;2.70;;
62584;SDS011;48643;51.670;5.808;2023-09-12T13:28:23;4.60;;;2.80;;
62584;SDS011;48643;51.670;5.808;2023-09-12T13:30:52;4.72;;;2.80;;
62584;SDS011;48643;51.670;5.808;2023-09-12T13:33:19;10.07;;;5.80;;
62584;SDS011;48643;51.670;5.808;2023-09-12T13:35:47;11.30;;;6.15;;
62584;SDS011;48643;51.670;5.808;2023-09-12T13:38:15;8.65;;;6.15;;
62584;SDS011;48643;51.670;5.808;2023-09-12T13:40:43;10.95;;;6.38;;
62584;SDS011;48643;51.670;5.808;2023-09-12T13:43:11;11.55;;;6.35;;
62584;SDS011;48643;51.670;5.808;2023-09-12T13:45:39;8.20;;;5.72;;
62584;SDS011;48643;51.670;5.808;2023-09-12T13:48:06;9.65;;;5.70;;
62584;SDS011;48643;51.670;5.808;2023-09-12T13:50:34;10.18;;;6.32;;
62584;SDS011;48643;51.670;5.808;2023-09-12T13:53:01;7.72;;;5.95;;
62584;SDS011;48643;51.670;5.808;2023-09-12T13:55:35;10.98;;;6.68;;
62584;SDS011;48643;51.670;5.808;2023-09-12T13:58:22;10.05;;;5.72;;
62584;SDS011;48643;51.670;5.808;2023-09-12T14:00:51;9.18;;;5.07;;
62584;SDS011;48643;51.670;5.808;2023-09-12T14:03:18;9.80;;;5.57;;
62584;SDS011;48643;51.670;5.808;2023-09-12T14:05:45;11.23;;;6.15;;
62584;SDS011;48643;51.670;5.808;2023-09-12T14:08:13;9.70;;;6.10;;
62584;SDS011;48643;51.670;5.808;2023-09-12T14:10:40;9.07;;;6.43;;
62584;SDS011;48643;51.670;5.808;2023-09-12T14:13:07;8.57;;;6.20;;
62584;SDS011;48643;51.670;5.808;2023-09-12T14:15:37;11.77;;;6.10;;
62584;SDS011;48643;51.670;5.808;2023-09-12T14:18:04;10.32;;;5.90;;
62584;SDS011;48643;51.670;5.808;2023-09-12T14:20:31;11.15;;;6.00;;
62584;SDS011;48643;51.670;5.808;2023-09-12T14:22:58;11.32;;;6.30;;
62584;SDS011;48643;51.670;5.808;2023-09-12T14:25:25;12.25;;;6.07;;
62584;SDS011;48643;51.670;5.808;2023-09-12T14:27:53;8.68;;;5.82;;
62584;SDS011;48643;51.670;5.808;2023-09-12T14:30:20;7.43;;;5.38;;
62584;SDS011;48643;51.670;5.808;2023-09-12T14:32:49;12.60;;;5.78;;
62584;SDS011;48643;51.670;5.808;2023-09-12T14:35:16;7.20;;;5.00;;
62584;SDS011;48643;51.670;5.808;2023-09-12T14:37:43;9.70;;;5.00;;
62584;SDS011;48643;51.670;5.808;2023-09-12T14:40:10;8.82;;;4.93;;
62584;SDS011;48643;51.670;5.808;2023-09-12T14:42:39;9.88;;;4.95;;
62584;SDS011;48643;51.670;5.808;2023-09-12T14:45:06;6.93;;;4.88;;
62584;SDS011;48643;51.670;5.808;2023-09-12T14:47:34;13.55;;;5.03;;
62584;SDS011;48643;51.670;5.808;2023-09-12T14:50:01;8.32;;;4.85;;
62584;SDS011;48643;51.670;5.808;2023-09-12T14:52:28;8.37;;;4.77;;
62584;SDS011;48643;51.670;5.808;2023-09-12T14:54:56;8.70;;;5.17;;
62584;SDS011;48643;51.670;5.808;2023-09-12T14:57:25;9.60;;;5.00;;
62584;SDS011;48643;51.670;5.808;2023-09-12T14:59:52;10.35;;;4.85;;
62584;SDS011;48643;51.670;5.808;2023-09-12T15:02:21;9.65;;;4.80;;
62584;SDS011;48643;51.670;5.808;2023-09-12T15:04:48;6.45;;;4.10;;
62584;SDS011;48643;51.670;5.808;2023-09-12T15:07:15;8.02;;;4.72;;
62584;SDS011;48643;51.670;5.808;2023-09-12T15:09:42;7.47;;;5.07;;
62584;SDS011;48643;51.670;5.808;2023-09-12T15:12:10;9.45;;;5.10;;
62584;SDS011;48643;51.670;5.808;2023-09-12T15:14:37;8.75;;;4.80;;
62584;SDS011;48643;51.670;5.808;2023-09-12T15:17:04;7.05;;;4.25;;
62584;SDS011;48643;51.670;5.808;2023-09-12T15:19:31;7.22;;;4.50;;